sensor_id;sensor_type;location;lat;lon;timestamp;P1;durP1;ratioP1;P2;durP2;ratioP2
64601;SDS011;68371;42.630;23.192;2023-04-25T00:00:00;7.18;;;3.22;;
64601;SDS011;68371;42.630;23.192;2023-04-25T00:02:28;7.80;;;3.47;;
64601;SDS011;68371;42.630;23.192;2023-04-25T00:04:58;9.15;;;3.03;;
64601;SDS011;68371;42.630;23.192;2023-04-25T00:07:25;7.90;;;3.13;;
64601;SDS011;68371;42.630;23.192;2023-04-25T00:09:51;5.10;;;2.58;;
64601;SDS011;68371;42.630;23.192;2023-04-25T00:12:18;6.88;;;2.42;;
64601;SDS011;68371;42.630;23.192;2023-04-25T00:14:45;3.35;;;2.15;;
64601;SDS011;68371;42.630;23.192;2023-04-25T00:17:14;4.82;;;2.20;;
64601;SDS011;68371;42.630;23.192;2023-04-25T00:19:42;6.38;;;2.30;;
64601;SDS011;68371;42.630;23.192;2023-04-25T00:22:11;5.97;;;2.38;;
64601;SDS011;68371;42.630;23.192;2023-04-25T00:24:38;3.20;;;2.00;;
64601;SDS011;68371;42.630;23.192;2023-04-25T00:27:04;3.08;;;2.05;;
64601;SDS011;68371;42.630;23.192;2023-04-25T00:29:31;3.63;;;2.40;;
64601;SDS011;68371;42.630;23.192;2023-04-25T00:31:59;4.60;;;2.60;;
64601;SDS011;68371;42.630;23.192;2023-04-25T00:34:26;3.55;;;1.88;;
64601;SDS011;68371;42.630;23.192;2023-04-25T00:36:53;2.78;;;1.48;;
64601;SDS011;68371;42.630;23.192;2023-04-25T00:39:21;2.88;;;1.20;;
64601;SDS011;68371;42.630;23.192;2023-04-25T00:41:48;2.92;;;1.20;;
64601;SDS011;68371;42.630;23.192;2023-04-25T00:44:18;2.20;;;1.40;;
64601;SDS011;68371;42.630;23.192;2023-04-25T00:46:45;2.50;;;1.52;;
64601;SDS011;68371;42.630;23.192;2023-04-25T00:49:14;2.58;;;1.52;;
64601;SDS011;68371;42.630;23.192;2023-04-25T00:51:42;2.33;;;1.30;;
64601;SDS011;68371;42.630;23.192;2023-04-25T00:54:10;3.33;;;1.30;;
64601;SDS011;68371;42.630;23.192;2023-04-25T00:56:39;2.08;;;1.50;;
64601;SDS011;68371;42.630;23.192;2023-04-25T00:59:06;1.70;;;1.13;;
64601;SDS011;68371;42.630;23.192;2023-04-25T01:01:33;4.07;;;1.55;;
64601;SDS011;68371;42.630;23.192;2023-04-25T01:04:00;2.88;;;1.17;;
64601;SDS011;68371;42.630;23.192;2023-04-25T01:06:27;1.73;;;1.08;;
64601;SDS011;68371;42.630;23.192;2023-04-25T01:08:54;2.28;;;1.00;;
64601;SDS011;68371;42.630;23.192;2023-04-25T01:11:20;3.83;;;1.15;;
64601;SDS011;68371;42.630;23.192;2023-04-25T01:13:48;2.20;;;1.40;;
64601;SDS011;68371;42.630;23.192;2023-04-25T01:16:15;1.63;;;1.10;;
64601;SDS011;68371;42.630;23.192;2023-04-25T01:18:42;2.60;;;1.40;;
64601;SDS011;68371;42.630;23.192;2023-04-25T01:21:12;1.98;;;1.25;;
64601;SDS011;68371;42.630;23.192;2023-04-25T01:23:40;2.88;;;1.50;;
64601;SDS011;68371;42.630;23.192;2023-04-25T01:26:07;2.40;;;1.63;;
64601;SDS011;68371;42.630;23.192;2023-04-25T01:28:35;2.33;;;1.67;;
64601;SDS011;68371;42.630;23.192;2023-04-25T01:31:02;3.70;;;1.80;;
64601;SDS011;68371;42.630;23.192;2023-04-25T01:33:29;2.70;;;1.83;;
64601;SDS011;68371;42.630;23.192;2023-04-25T01:35:56;3.47;;;2.08;;
64601;SDS011;68371;42.630;23.192;2023-04-25T01:38:24;2.80;;;2.00;;
64601;SDS011;68371;42.630;23.192;2023-04-25T01:40:51;3.15;;;2.08;;
64601;SDS011;68371;42.630;23.192;2023-04-25T01:43:18;3.30;;;2.30;;
64601;SDS011;68371;42.630;23.192;2023-04-25T01:45:45;4.43;;;2.70;;
64601;SDS011;68371;42.630;23.192;2023-04-25T01:48:12;3.47;;;2.65;;
64601;SDS011;68371;42.630;23.192;2023-04-25T01:50:40;3.83;;;2.78;;
64601;SDS011;68371;42.630;23.192;2023-04-25T01:53:08;4.30;;;2.95;;
64601;SDS011;68371;42.630;23.192;2023-04-25T01:55:37;8.10;;;2.95;;
64601;SDS011;68371;42.630;23.192;2023-04-25T01:58:04;5.35;;;3.30;;
64601;SDS011;68371;42.630;23.192;2023-04-25T02:00:34;7.47;;;3.75;;
64601;SDS011;68371;42.630;23.192;2023-04-25T02:03:03;5.57;;;4.15;;
64601;SDS011;68371;42.630;23.192;2023-04-25T02:05:33;7.07;;;3.90;;
64601;SDS011;68371;42.630;23.192;2023-04-25T02:08:00;6.60;;;3.83;;
64601;SDS011;68371;42.630;23.192;2023-04-25T02:10:27;5.10;;;3.50;;
64601;SDS011;68371;42.630;23.192;2023-04-25T02:12:56;7.63;;;4.32;;
64601;SDS011;68371;42.630;23.192;2023-04-25T02:15:23;6.32;;;4.50;;
64601;SDS011;68371;42.630;23.192;2023-04-25T02:17:50;8.10;;;4.68;;
64601;SDS011;68371;42.630;23.192;2023-04-25T02:20:17;7.35;;;4.53;;
64601;SDS011;68371;42.630;23.192;2023-04-25T02:22:46;6.28;;;4.03;;
64601;SDS011;68371;42.630;23.192;2023-04-25T02:25:13;6.20;;;4.53;;
64601;SDS011;68371;42.630;23.192;2023-04-25T02:27:41;6.10;;;4.60;;
64601;SDS011;68371;42.630;23.192;2023-04-25T02:30:09;9.15;;;4.40;;
64601;SDS011;68371;42.630;23.192;2023-04-25T02:32:36;6.30;;;3.88;;
64601;SDS011;68371;42.630;23.192;2023-04-25T02:35:03;5.93;;;4.22;;
64601;SDS011;68371;42.630;23.192;2023-04-25T02:37:30;7.40;;;4.32;;
64601;SDS011;68371;42.630;23.192;2023-04-25T02:39:57;5.63;;;3.88;;
64601;SDS011;68371;42.630;23.192;2023-04-25T02:42:24;5.80;;;4.07;;
64601;SDS011;68371;42.630;23.192;2023-04-25T02:44:51;6.75;;;4.20;;
64601;SDS011;68371;42.630;23.192;2023-04-25T02:47:19;6.05;;;4.53;;
64601;SDS011;68371;42.630;23.192;2023-04-25T02:49:47;6.85;;;4.75;;
64601;SDS011;68371;42.630;23.192;2023-04-25T02:52:13;6.03;;;4.32;;
64601;SDS011;68371;42.630;23.192;2023-04-25T02:54:40;8.52;;;5.05;;
64601;SDS011;68371;42.630;23.192;2023-04-25T02:57:07;5.25;;;3.90;;
64601;SDS011;68371;42.630;23.192;2023-04-25T02:59:33;7.28;;;4.07;;
64601;SDS011;68371;42.630;23.192;2023-04-25T03:02:00;6.07;;;3.13;;
64601;SDS011;68371;42.630;23.192;2023-04-25T03:04:29;6.43;;;4.00;;
64601;SDS011;68371;42.630;23.192;2023-04-25T03:06:55;6.35;;;3.90;;
64601;SDS011;68371;42.630;23.192;2023-04-25T03:09:22;6.88;;;4.28;;
64601;SDS011;68371;42.630;23.192;2023-04-25T03:11:49;7.35;;;4.32;;
64601;SDS011;68371;42.630;23.192;2023-04-25T03:14:16;7.35;;;4.35;;
64601;SDS011;68371;42.630;23.192;2023-04-25T03:16:42;6.55;;;4.03;;
64601;SDS011;68371;42.630;23.192;2023-04-25T03:19:10;7.53;;;4.28;;
64601;SDS011;68371;42.630;23.192;2023-04-25T03:21:38;7.75;;;4.78;;
64601;SDS011;68371;42.630;23.192;2023-04-25T03:24:04;3.90;;;3.05;;
64601;SDS011;68371;42.630;23.192;2023-04-25T03:26:32;5.57;;;4.05;;
64601;SDS011;68371;42.630;23.192;2023-04-25T03:28:58;4.45;;;2.83;;
64601;SDS011;68371;42.630;23.192;2023-04-25T03:31:25;5.60;;;3.05;;
64601;SDS011;68371;42.630;23.192;2023-04-25T03:33:53;10.25;;;3.97;;
64601;SDS011;68371;42.630;23.192;2023-04-25T03:36:20;5.65;;;3.65;;
64601;SDS011;68371;42.630;23.192;2023-04-25T03:38:48;6.70;;;4.45;;
64601;SDS011;68371;42.630;23.192;2023-04-25T03:41:15;10.07;;;3.95;;
64601;SDS011;68371;42.630;23.192;2023-04-25T03:43:41;7.78;;;4.43;;
64601;SDS011;68371;42.630;23.192;2023-04-25T03:46:08;8.65;;;3.80;;
64601;SDS011;68371;42.630;23.192;2023-04-25T03:48:38;5.00;;;3.10;;
64601;SDS011;68371;42.630;23.192;2023-04-25T03:51:04;4.95;;;3.75;;
64601;SDS011;68371;42.630;23.192;2023-04-25T03:53:31;6.15;;;4.15;;
64601;SDS011;68371;42.630;23.192;2023-04-25T03:55:59;8.35;;;4.50;;
64601;SDS011;68371;42.630;23.192;2023-04-25T03:58:26;5.25;;;3.22;;
64601;SDS011;68371;42.630;23.192;2023-04-25T04:00:52;12.52;;;4.07;;
64601;SDS011;68371;42.630;23.192;2023-04-25T04:03:20;7.00;;;3.92;;
64601;SDS011;68371;42.630;23.192;2023-04-25T04:05:46;7.85;;;4.05;;
64601;SDS011;68371;42.630;23.192;2023-04-25T04:08:13;6.90;;;4.43;;
64601;SDS011;68371;42.630;23.192;2023-04-25T04:10:40;7.45;;;4.63;;
64601;SDS011;68371;42.630;23.192;2023-04-25T04:13:08;6.82;;;3.90;;
64601;SDS011;68371;42.630;23.192;2023-04-25T04:15:35;12.85;;;4.72;;
64601;SDS011;68371;42.630;23.192;2023-04-25T04:18:02;5.03;;;3.67;;
64601;SDS011;68371;42.630;23.192;2023-04-25T04:20:29;5.70;;;3.83;;
64601;SDS011;68371;42.630;23.192;2023-04-25T04:22:56;9.75;;;4.65;;
64601;SDS011;68371;42.630;23.192;2023-04-25T04:25:23;9.32;;;4.47;;
64601;SDS011;68371;42.630;23.192;2023-04-25T04:27:50;7.40;;;3.28;;
64601;SDS011;68371;42.630;23.192;2023-04-25T04:30:20;5.40;;;3.72;;
64601;SDS011;68371;42.630;23.192;2023-04-25T04:32:49;5.80;;;3.95;;
64601;SDS011;68371;42.630;23.192;2023-04-25T04:35:16;5.45;;;3.60;;
64601;SDS011;68371;42.630;23.192;2023-04-25T04:37:42;5.50;;;3.58;;
64601;SDS011;68371;42.630;23.192;2023-04-25T04:40:10;4.78;;;3.28;;
64601;SDS011;68371;42.630;23.192;2023-04-25T04:42:40;5.45;;;4.07;;
64601;SDS011;68371;42.630;23.192;2023-04-25T04:45:07;6.50;;;3.72;;
64601;SDS011;68371;42.630;23.192;2023-04-25T04:47:36;9.50;;;4.38;;
64601;SDS011;68371;42.630;23.192;2023-04-25T04:50:07;5.97;;;3.70;;
64601;SDS011;68371;42.630;23.192;2023-04-25T04:52:34;3.92;;;2.90;;
64601;SDS011;68371;42.630;23.192;2023-04-25T04:55:01;4.10;;;2.97;;
64601;SDS011;68371;42.630;23.192;2023-04-25T04:57:28;4.50;;;3.35;;
64601;SDS011;68371;42.630;23.192;2023-04-25T04:59:56;7.60;;;3.78;;
64601;SDS011;68371;42.630;23.192;2023-04-25T05:02:23;5.60;;;3.50;;
64601;SDS011;68371;42.630;23.192;2023-04-25T05:04:51;4.10;;;2.90;;
64601;SDS011;68371;42.630;23.192;2023-04-25T05:07:18;4.50;;;2.67;;
64601;SDS011;68371;42.630;23.192;2023-04-25T05:09:45;5.70;;;3.13;;
64601;SDS011;68371;42.630;23.192;2023-04-25T05:12:12;7.18;;;3.65;;
64601;SDS011;68371;42.630;23.192;2023-04-25T05:14:38;5.05;;;2.75;;
64601;SDS011;68371;42.630;23.192;2023-04-25T05:17:05;4.10;;;2.22;;
64601;SDS011;68371;42.630;23.192;2023-04-25T05:19:33;3.30;;;2.33;;
64601;SDS011;68371;42.630;23.192;2023-04-25T05:22:01;4.45;;;2.90;;
64601;SDS011;68371;42.630;23.192;2023-04-25T05:24:29;3.20;;;1.80;;
64601;SDS011;68371;42.630;23.192;2023-04-25T05:26:56;5.28;;;2.75;;
64601;SDS011;68371;42.630;23.192;2023-04-25T05:29:23;4.28;;;2.50;;
64601;SDS011;68371;42.630;23.192;2023-04-25T05:31:50;3.63;;;2.38;;
64601;SDS011;68371;42.630;23.192;2023-04-25T05:34:17;5.30;;;2.95;;
64601;SDS011;68371;42.630;23.192;2023-04-25T05:36:43;5.80;;;2.72;;
64601;SDS011;68371;42.630;23.192;2023-04-25T05:39:14;4.05;;;1.90;;
64601;SDS011;68371;42.630;23.192;2023-04-25T05:41:41;5.38;;;2.40;;
64601;SDS011;68371;42.630;23.192;2023-04-25T05:44:08;4.25;;;2.83;;
64601;SDS011;68371;42.630;23.192;2023-04-25T05:46:35;5.75;;;2.88;;
64601;SDS011;68371;42.630;23.192;2023-04-25T05:49:02;3.30;;;2.50;;
64601;SDS011;68371;42.630;23.192;2023-04-25T05:51:28;6.75;;;2.58;;
64601;SDS011;68371;42.630;23.192;2023-04-25T05:53:56;6.57;;;3.70;;
64601;SDS011;68371;42.630;23.192;2023-04-25T05:56:24;4.85;;;2.35;;
64601;SDS011;68371;42.630;23.192;2023-04-25T05:58:51;3.72;;;2.45;;
64601;SDS011;68371;42.630;23.192;2023-04-25T06:01:18;3.90;;;2.53;;
64601;SDS011;68371;42.630;23.192;2023-04-25T06:03:44;4.00;;;2.60;;
64601;SDS011;68371;42.630;23.192;2023-04-25T06:06:11;7.35;;;3.75;;
64601;SDS011;68371;42.630;23.192;2023-04-25T06:08:38;9.10;;;3.05;;
64601;SDS011;68371;42.630;23.192;2023-04-25T06:11:04;4.05;;;2.80;;
64601;SDS011;68371;42.630;23.192;2023-04-25T06:13:33;6.70;;;2.85;;
64601;SDS011;68371;42.630;23.192;2023-04-25T06:16:00;5.35;;;2.42;;
64601;SDS011;68371;42.630;23.192;2023-04-25T06:18:27;5.32;;;3.15;;
64601;SDS011;68371;42.630;23.192;2023-04-25T06:20:54;4.03;;;2.72;;
64601;SDS011;68371;42.630;23.192;2023-04-25T06:23:21;3.00;;;2.15;;
64601;SDS011;68371;42.630;23.192;2023-04-25T06:25:47;6.05;;;2.92;;
64601;SDS011;68371;42.630;23.192;2023-04-25T06:28:14;5.75;;;2.85;;
64601;SDS011;68371;42.630;23.192;2023-04-25T06:30:42;2.97;;;2.10;;
64601;SDS011;68371;42.630;23.192;2023-04-25T06:33:09;4.50;;;3.15;;
64601;SDS011;68371;42.630;23.192;2023-04-25T06:35:35;5.65;;;2.88;;
64601;SDS011;68371;42.630;23.192;2023-04-25T06:38:02;3.00;;;1.85;;
64601;SDS011;68371;42.630;23.192;2023-04-25T06:40:30;3.97;;;2.50;;
64601;SDS011;68371;42.630;23.192;2023-04-25T06:42:56;6.63;;;2.88;;
64601;SDS011;68371;42.630;23.192;2023-04-25T06:45:23;6.63;;;3.50;;
64601;SDS011;68371;42.630;23.192;2023-04-25T06:47:51;6.60;;;3.75;;
64601;SDS011;68371;42.630;23.192;2023-04-25T06:50:18;9.73;;;4.32;;
64601;SDS011;68371;42.630;23.192;2023-04-25T06:52:45;14.30;;;5.85;;
64601;SDS011;68371;42.630;23.192;2023-04-25T06:55:11;8.70;;;3.90;;
64601;SDS011;68371;42.630;23.192;2023-04-25T06:57:38;4.63;;;3.28;;
64601;SDS011;68371;42.630;23.192;2023-04-25T07:00:05;12.38;;;2.85;;
64601;SDS011;68371;42.630;23.192;2023-04-25T07:02:34;4.93;;;3.30;;
64601;SDS011;68371;42.630;23.192;2023-04-25T07:05:03;6.18;;;2.60;;
64601;SDS011;68371;42.630;23.192;2023-04-25T07:07:31;8.93;;;3.17;;
64601;SDS011;68371;42.630;23.192;2023-04-25T07:09:58;6.78;;;3.00;;
64601;SDS011;68371;42.630;23.192;2023-04-25T07:12:25;5.00;;;2.65;;
64601;SDS011;68371;42.630;23.192;2023-04-25T07:14:52;3.88;;;2.90;;
64601;SDS011;68371;42.630;23.192;2023-04-25T07:17:18;5.72;;;2.95;;
64601;SDS011;68371;42.630;23.192;2023-04-25T07:19:45;3.53;;;2.20;;
64601;SDS011;68371;42.630;23.192;2023-04-25T07:22:13;6.43;;;3.53;;
64601;SDS011;68371;42.630;23.192;2023-04-25T07:24:40;6.90;;;3.35;;
64601;SDS011;68371;42.630;23.192;2023-04-25T07:27:07;3.90;;;2.80;;
64601;SDS011;68371;42.630;23.192;2023-04-25T07:29:33;3.97;;;2.75;;
64601;SDS011;68371;42.630;23.192;2023-04-25T07:32:02;4.00;;;2.60;;
64601;SDS011;68371;42.630;23.192;2023-04-25T07:34:29;4.80;;;2.83;;
64601;SDS011;68371;42.630;23.192;2023-04-25T07:36:57;2.53;;;1.77;;
64601;SDS011;68371;42.630;23.192;2023-04-25T07:39:25;3.47;;;2.42;;
64601;SDS011;68371;42.630;23.192;2023-04-25T07:41:52;4.75;;;2.15;;
64601;SDS011;68371;42.630;23.192;2023-04-25T07:44:19;4.40;;;2.65;;
64601;SDS011;68371;42.630;23.192;2023-04-25T07:46:45;3.63;;;2.38;;
64601;SDS011;68371;42.630;23.192;2023-04-25T07:49:12;4.05;;;2.40;;
64601;SDS011;68371;42.630;23.192;2023-04-25T07:51:39;5.10;;;2.42;;
64601;SDS011;68371;42.630;23.192;2023-04-25T07:54:06;2.40;;;1.45;;
64601;SDS011;68371;42.630;23.192;2023-04-25T07:56:34;3.15;;;2.20;;
64601;SDS011;68371;42.630;23.192;2023-04-25T07:59:02;3.10;;;1.95;;
64601;SDS011;68371;42.630;23.192;2023-04-25T08:01:28;4.47;;;2.40;;
64601;SDS011;68371;42.630;23.192;2023-04-25T08:03:55;3.17;;;1.90;;
64601;SDS011;68371;42.630;23.192;2023-04-25T08:06:22;2.33;;;1.58;;
64601;SDS011;68371;42.630;23.192;2023-04-25T08:08:49;3.65;;;2.30;;
64601;SDS011;68371;42.630;23.192;2023-04-25T08:11:15;4.13;;;1.85;;
64601;SDS011;68371;42.630;23.192;2023-04-25T08:13:43;1.98;;;1.20;;
64601;SDS011;68371;42.630;23.192;2023-04-25T08:16:10;2.33;;;1.52;;
64601;SDS011;68371;42.630;23.192;2023-04-25T08:18:37;2.03;;;1.23;;
64601;SDS011;68371;42.630;23.192;2023-04-25T08:21:04;5.00;;;1.80;;
64601;SDS011;68371;42.630;23.192;2023-04-25T08:23:31;4.25;;;1.83;;
64601;SDS011;68371;42.630;23.192;2023-04-25T08:25:58;3.45;;;1.27;;
64601;SDS011;68371;42.630;23.192;2023-04-25T08:28:25;3.05;;;1.35;;
64601;SDS011;68371;42.630;23.192;2023-04-25T08:30:53;4.38;;;2.90;;
64601;SDS011;68371;42.630;23.192;2023-04-25T08:33:19;2.90;;;1.77;;
64601;SDS011;68371;42.630;23.192;2023-04-25T08:35:46;3.85;;;2.00;;
64601;SDS011;68371;42.630;23.192;2023-04-25T08:38:13;5.25;;;3.42;;
64601;SDS011;68371;42.630;23.192;2023-04-25T08:40:40;3.47;;;1.80;;
64601;SDS011;68371;42.630;23.192;2023-04-25T08:43:07;4.60;;;1.63;;
64601;SDS011;68371;42.630;23.192;2023-04-25T08:45:36;10.70;;;4.00;;
64601;SDS011;68371;42.630;23.192;2023-04-25T08:48:10;1.67;;;0.60;;
64601;SDS011;68371;42.630;23.192;2023-04-25T08:50:38;1.98;;;1.00;;
64601;SDS011;68371;42.630;23.192;2023-04-25T08:53:12;1.73;;;1.05;;
64601;SDS011;68371;42.630;23.192;2023-04-25T08:55:43;3.30;;;1.60;;
64601;SDS011;68371;42.630;23.192;2023-04-25T08:58:11;3.88;;;1.30;;
64601;SDS011;68371;42.630;23.192;2023-04-25T09:00:39;11.13;;;3.50;;
64601;SDS011;68371;42.630;23.192;2023-04-25T09:03:06;4.18;;;1.85;;
64601;SDS011;68371;42.630;23.192;2023-04-25T09:05:36;2.85;;;1.38;;
64601;SDS011;68371;42.630;23.192;2023-04-25T09:08:03;2.17;;;1.30;;
64601;SDS011;68371;42.630;23.192;2023-04-25T09:10:30;3.10;;;1.85;;
64601;SDS011;68371;42.630;23.192;2023-04-25T09:13:04;4.32;;;2.45;;
64601;SDS011;68371;42.630;23.192;2023-04-25T09:15:31;15.07;;;5.13;;
64601;SDS011;68371;42.630;23.192;2023-04-25T09:17:59;2.78;;;1.02;;
64601;SDS011;68371;42.630;23.192;2023-04-25T09:20:27;1.52;;;1.08;;
64601;SDS011;68371;42.630;23.192;2023-04-25T09:23:03;1.85;;;1.15;;
64601;SDS011;68371;42.630;23.192;2023-04-25T09:25:35;1.50;;;0.90;;
64601;SDS011;68371;42.630;23.192;2023-04-25T09:28:04;1.55;;;0.85;;
64601;SDS011;68371;42.630;23.192;2023-04-25T09:30:32;7.28;;;2.65;;
64601;SDS011;68371;42.630;23.192;2023-04-25T09:33:04;2.10;;;1.40;;
64601;SDS011;68371;42.630;23.192;2023-04-25T09:38:06;3.58;;;1.50;;
64601;SDS011;68371;42.630;23.192;2023-04-25T09:40:34;2.45;;;1.27;;
64601;SDS011;68371;42.630;23.192;2023-04-25T09:43:08;5.43;;;2.35;;
64601;SDS011;68371;42.630;23.192;2023-04-25T09:45:40;5.22;;;2.88;;
64601;SDS011;68371;42.630;23.192;2023-04-25T09:48:12;2.92;;;1.20;;
64601;SDS011;68371;42.630;23.192;2023-04-25T09:50:44;2.75;;;1.20;;
64601;SDS011;68371;42.630;23.192;2023-04-25T09:53:11;0.70;;;0.57;;
64601;SDS011;68371;42.630;23.192;2023-04-25T09:55:38;1.98;;;0.50;;
64601;SDS011;68371;42.630;23.192;2023-04-25T09:58:08;2.65;;;1.05;;
64601;SDS011;68371;42.630;23.192;2023-04-25T10:00:37;3.83;;;0.70;;
64601;SDS011;68371;42.630;23.192;2023-04-25T10:03:05;2.78;;;0.77;;
64601;SDS011;68371;42.630;23.192;2023-04-25T10:05:32;1.83;;;0.57;;
64601;SDS011;68371;42.630;23.192;2023-04-25T10:08:04;1.90;;;1.13;;
64601;SDS011;68371;42.630;23.192;2023-04-25T10:10:33;3.28;;;1.20;;
64601;SDS011;68371;42.630;23.192;2023-04-25T10:13:04;1.47;;;0.73;;
64601;SDS011;68371;42.630;23.192;2023-04-25T10:15:33;2.75;;;0.68;;
64601;SDS011;68371;42.630;23.192;2023-04-25T10:18:01;4.97;;;1.40;;
64601;SDS011;68371;42.630;23.192;2023-04-25T10:20:29;2.88;;;0.90;;
64601;SDS011;68371;42.630;23.192;2023-04-25T10:22:58;6.80;;;1.10;;
64601;SDS011;68371;42.630;23.192;2023-04-25T10:25:34;1.23;;;0.68;;
64601;SDS011;68371;42.630;23.192;2023-04-25T10:28:03;2.67;;;0.95;;
64601;SDS011;68371;42.630;23.192;2023-04-25T10:30:30;1.25;;;0.65;;
64601;SDS011;68371;42.630;23.192;2023-04-25T10:32:58;2.78;;;1.02;;
64601;SDS011;68371;42.630;23.192;2023-04-25T10:35:25;1.98;;;0.80;;
64601;SDS011;68371;42.630;23.192;2023-04-25T10:37:57;4.45;;;1.23;;
64601;SDS011;68371;42.630;23.192;2023-04-25T10:40:30;2.05;;;1.08;;
64601;SDS011;68371;42.630;23.192;2023-04-25T10:43:32;3.60;;;0.90;;
64601;SDS011;68371;42.630;23.192;2023-04-25T10:46:01;1.52;;;0.90;;
64601;SDS011;68371;42.630;23.192;2023-04-25T10:48:29;3.42;;;1.30;;
64601;SDS011;68371;42.630;23.192;2023-04-25T10:51:06;4.32;;;1.60;;
64601;SDS011;68371;42.630;23.192;2023-04-25T10:53:34;2.15;;;0.80;;
64601;SDS011;68371;42.630;23.192;2023-04-25T10:56:10;3.35;;;1.23;;
64601;SDS011;68371;42.630;23.192;2023-04-25T10:58:41;3.92;;;1.13;;
64601;SDS011;68371;42.630;23.192;2023-04-25T11:01:08;2.15;;;0.80;;
64601;SDS011;68371;42.630;23.192;2023-04-25T11:03:37;3.40;;;1.40;;
64601;SDS011;68371;42.630;23.192;2023-04-25T11:06:06;5.00;;;1.10;;
64601;SDS011;68371;42.630;23.192;2023-04-25T11:08:47;5.55;;;1.42;;
64601;SDS011;68371;42.630;23.192;2023-04-25T11:11:17;3.75;;;1.05;;
64601;SDS011;68371;42.630;23.192;2023-04-25T11:13:44;3.80;;;1.23;;
64601;SDS011;68371;42.630;23.192;2023-04-25T11:16:13;5.90;;;1.40;;
64601;SDS011;68371;42.630;23.192;2023-04-25T11:18:40;3.28;;;0.90;;
64601;SDS011;68371;42.630;23.192;2023-04-25T11:21:07;1.83;;;0.80;;
64601;SDS011;68371;42.630;23.192;2023-04-25T11:23:34;3.00;;;1.27;;
64601;SDS011;68371;42.630;23.192;2023-04-25T11:26:01;3.38;;;1.00;;
64601;SDS011;68371;42.630;23.192;2023-04-25T11:28:30;3.17;;;1.05;;
64601;SDS011;68371;42.630;23.192;2023-04-25T11:30:56;4.40;;;1.05;;
64601;SDS011;68371;42.630;23.192;2023-04-25T11:33:23;5.25;;;1.20;;
64601;SDS011;68371;42.630;23.192;2023-04-25T11:35:51;3.80;;;1.10;;
64601;SDS011;68371;42.630;23.192;2023-04-25T11:38:20;3.03;;;1.23;;
64601;SDS011;68371;42.630;23.192;2023-04-25T11:40:49;3.53;;;1.00;;
64601;SDS011;68371;42.630;23.192;2023-04-25T11:43:17;5.20;;;1.40;;
64601;SDS011;68371;42.630;23.192;2023-04-25T11:45:47;5.72;;;1.20;;
64601;SDS011;68371;42.630;23.192;2023-04-25T11:48:17;3.85;;;1.38;;
64601;SDS011;68371;42.630;23.192;2023-04-25T11:50:45;4.22;;;1.90;;
64601;SDS011;68371;42.630;23.192;2023-04-25T11:53:12;4.53;;;1.52;;
64601;SDS011;68371;42.630;23.192;2023-04-25T11:55:39;3.58;;;1.50;;
64601;SDS011;68371;42.630;23.192;2023-04-25T11:58:06;3.30;;;1.90;;
64601;SDS011;68371;42.630;23.192;2023-04-25T12:00:33;3.17;;;1.70;;
64601;SDS011;68371;42.630;23.192;2023-04-25T12:03:02;4.68;;;1.45;;
64601;SDS011;68371;42.630;23.192;2023-04-25T12:05:30;3.75;;;0.90;;
64601;SDS011;68371;42.630;23.192;2023-04-25T12:07:58;2.00;;;1.00;;
64601;SDS011;68371;42.630;23.192;2023-04-25T12:10:36;4.95;;;1.20;;
64601;SDS011;68371;42.630;23.192;2023-04-25T12:13:17;2.88;;;0.55;;
64601;SDS011;68371;42.630;23.192;2023-04-25T12:18:14;2.63;;;1.00;;
64601;SDS011;68371;42.630;23.192;2023-04-25T12:20:41;1.00;;;0.63;;
64601;SDS011;68371;42.630;23.192;2023-04-25T12:23:08;2.05;;;0.93;;
64601;SDS011;68371;42.630;23.192;2023-04-25T12:25:36;2.00;;;0.68;;
64601;SDS011;68371;42.630;23.192;2023-04-25T12:28:11;2.33;;;1.00;;
64601;SDS011;68371;42.630;23.192;2023-04-25T12:33:26;0.98;;;0.65;;
64601;SDS011;68371;42.630;23.192;2023-04-25T12:35:54;1.75;;;1.10;;
64601;SDS011;68371;42.630;23.192;2023-04-25T12:56:34;0.90;;;0.60;;
64601;SDS011;68371;42.630;23.192;2023-04-25T12:59:01;1.25;;;0.55;;
64601;SDS011;68371;42.630;23.192;2023-04-25T13:01:29;1.20;;;0.60;;
64601;SDS011;68371;42.630;23.192;2023-04-25T13:03:57;2.30;;;0.60;;
64601;SDS011;68371;42.630;23.192;2023-04-25T13:06:26;2.65;;;1.00;;
64601;SDS011;68371;42.630;23.192;2023-04-25T13:08:55;1.50;;;0.70;;
64601;SDS011;68371;42.630;23.192;2023-04-25T13:11:22;1.95;;;0.70;;
64601;SDS011;68371;42.630;23.192;2023-04-25T13:13:52;2.72;;;0.80;;
64601;SDS011;68371;42.630;23.192;2023-04-25T13:16:21;1.27;;;0.70;;
64601;SDS011;68371;42.630;23.192;2023-04-25T13:18:48;1.58;;;0.80;;
64601;SDS011;68371;42.630;23.192;2023-04-25T13:21:15;2.20;;;1.15;;
64601;SDS011;68371;42.630;23.192;2023-04-25T13:23:41;2.08;;;1.00;;
64601;SDS011;68371;42.630;23.192;2023-04-25T13:26:09;4.65;;;1.50;;
64601;SDS011;68371;42.630;23.192;2023-04-25T13:28:36;6.47;;;2.67;;
64601;SDS011;68371;42.630;23.192;2023-04-25T13:31:04;8.63;;;1.63;;
64601;SDS011;68371;42.630;23.192;2023-04-25T13:33:31;3.95;;;1.65;;
64601;SDS011;68371;42.630;23.192;2023-04-25T13:35:58;3.15;;;1.70;;
64601;SDS011;68371;42.630;23.192;2023-04-25T13:38:25;5.30;;;1.90;;
64601;SDS011;68371;42.630;23.192;2023-04-25T13:40:53;3.53;;;1.10;;
64601;SDS011;68371;42.630;23.192;2023-04-25T13:43:20;1.65;;;1.00;;
64601;SDS011;68371;42.630;23.192;2023-04-25T13:45:48;2.03;;;1.02;;
64601;SDS011;68371;42.630;23.192;2023-04-25T13:48:17;2.13;;;1.02;;
64601;SDS011;68371;42.630;23.192;2023-04-25T13:50:44;2.35;;;1.15;;
64601;SDS011;68371;42.630;23.192;2023-04-25T13:53:11;1.25;;;0.70;;
64601;SDS011;68371;42.630;23.192;2023-04-25T13:55:38;4.85;;;1.67;;
64601;SDS011;68371;42.630;23.192;2023-04-25T13:58:05;4.38;;;1.50;;
64601;SDS011;68371;42.630;23.192;2023-04-25T14:00:35;3.67;;;1.88;;
64601;SDS011;68371;42.630;23.192;2023-04-25T14:03:03;2.85;;;1.40;;
64601;SDS011;68371;42.630;23.192;2023-04-25T14:05:33;2.17;;;1.08;;
64601;SDS011;68371;42.630;23.192;2023-04-25T14:08:03;2.25;;;0.98;;
64601;SDS011;68371;42.630;23.192;2023-04-25T14:10:31;1.13;;;0.70;;
64601;SDS011;68371;42.630;23.192;2023-04-25T14:12:57;2.92;;;0.95;;
64601;SDS011;68371;42.630;23.192;2023-04-25T14:15:25;1.42;;;0.60;;
64601;SDS011;68371;42.630;23.192;2023-04-25T14:17:53;0.73;;;0.50;;
64601;SDS011;68371;42.630;23.192;2023-04-25T14:20:20;4.47;;;0.70;;
64601;SDS011;68371;42.630;23.192;2023-04-25T14:22:50;1.88;;;0.90;;
64601;SDS011;68371;42.630;23.192;2023-04-25T14:25:18;2.08;;;0.80;;
64601;SDS011;68371;42.630;23.192;2023-04-25T14:27:45;2.15;;;0.80;;
64601;SDS011;68371;42.630;23.192;2023-04-25T14:30:14;1.48;;;0.75;;
64601;SDS011;68371;42.630;23.192;2023-04-25T14:32:41;3.67;;;0.80;;
64601;SDS011;68371;42.630;23.192;2023-04-25T14:35:08;3.42;;;0.80;;
64601;SDS011;68371;42.630;23.192;2023-04-25T14:37:35;2.33;;;0.80;;
64601;SDS011;68371;42.630;23.192;2023-04-25T14:40:03;2.00;;;0.63;;
64601;SDS011;68371;42.630;23.192;2023-04-25T14:42:31;1.23;;;0.70;;
64601;SDS011;68371;42.630;23.192;2023-04-25T14:44:59;2.70;;;0.70;;
64601;SDS011;68371;42.630;23.192;2023-04-25T14:47:26;1.88;;;0.75;;
64601;SDS011;68371;42.630;23.192;2023-04-25T14:49:53;2.28;;;0.70;;
64601;SDS011;68371;42.630;23.192;2023-04-25T14:52:20;3.28;;;0.73;;
64601;SDS011;68371;42.630;23.192;2023-04-25T14:54:47;0.90;;;0.60;;
64601;SDS011;68371;42.630;23.192;2023-04-25T14:57:15;1.58;;;0.70;;
64601;SDS011;68371;42.630;23.192;2023-04-25T14:59:41;1.65;;;0.80;;
64601;SDS011;68371;42.630;23.192;2023-04-25T15:02:08;1.10;;;0.60;;